Stockdale, Texas
Current Conditions -  °F | °C
As of 4:58 PM on Tuesday 25 Nov 2014 (Local Time) from KRND Reporting Station
Clear Clear  
Wind Chill: 64°   Ceiling: Unl
Heat Index: 64°   Visibility: 10mi
Dew Point: 26°   Wind: 8mph
Humidity: 23%   Direction: 220°SW
Pressure: 30.21"   Gusts: NA
Location:  29.24°N, 97.96°W
Report Text: KRND 252258Z AUTO 22007KT 10SM CLR 18/M04 A3021 RMK AO2 SLP230 T01801036
Loading
Personal Weather Stations






























Interactive Weather Map New forecast layout! Learn more

10-Day Weather Forecast

Advertisements
Track Severe Weather on mobile